createdAt,value
2019-03-11T00:02:26.051Z,51.00
2019-03-11T00:04:54.889Z,51.00
2019-03-11T00:07:22.714Z,50.70
2019-03-11T00:09:50.564Z,50.20
2019-03-11T00:12:18.322Z,49.60
2019-03-11T00:14:45.879Z,50.00
2019-03-11T00:17:13.568Z,50.70
2019-03-11T00:19:41.293Z,50.20
2019-03-11T00:22:09.022Z,50.30
2019-03-11T00:24:36.692Z,51.30
2019-03-11T00:27:05.021Z,51.90
2019-03-11T00:29:32.667Z,51.10
2019-03-11T00:32:00.459Z,51.40
2019-03-11T00:34:28.053Z,51.90
2019-03-11T00:36:55.640Z,51.60
2019-03-11T00:39:23.225Z,51.70
2019-03-11T00:41:51.094Z,51.30
2019-03-11T00:44:18.850Z,51.00
2019-03-11T00:46:46.461Z,51.90
2019-03-11T00:49:14.093Z,52.50
2019-03-11T00:51:41.853Z,52.50
2019-03-11T00:54:09.468Z,52.90
2019-03-11T00:56:37.021Z,52.80
2019-03-11T00:59:04.559Z,52.80
2019-03-11T01:01:32.165Z,53.20
2019-03-11T01:03:59.854Z,53.40
2019-03-11T01:06:27.475Z,53.10
2019-03-11T01:08:55.121Z,53.40
2019-03-11T01:11:22.640Z,53.70
2019-03-11T01:13:50.818Z,53.50
2019-03-11T01:16:19.251Z,52.60
2019-03-11T01:18:47.223Z,52.60
2019-03-11T01:21:14.830Z,52.80
2019-03-11T01:23:42.544Z,52.50
2019-03-11T01:26:10.076Z,52.60
2019-03-11T01:28:37.681Z,52.80
2019-03-11T01:31:05.341Z,52.90
2019-03-11T01:33:33.896Z,53.20
2019-03-11T01:36:01.354Z,53.20
2019-03-11T01:38:29.154Z,52.90
2019-03-11T01:40:57.210Z,52.50
2019-03-11T01:43:24.779Z,52.50
2019-03-11T01:45:52.327Z,52.30
2019-03-11T01:48:19.922Z,52.60
2019-03-11T01:50:47.613Z,52.90
2019-03-11T01:53:15.054Z,53.20
2019-03-11T01:55:42.604Z,53.10
2019-03-11T01:58:10.161Z,53.10
2019-03-11T02:00:57.708Z,53.40
2019-03-11T02:03:27.971Z,53.10
2019-03-11T02:05:55.610Z,52.90
2019-03-11T02:08:23.309Z,53.10
2019-03-11T02:10:50.989Z,53.20
2019-03-11T02:13:18.533Z,53.20
2019-03-11T02:15:46.022Z,53.10
2019-03-11T02:18:13.599Z,52.90
2019-03-11T02:20:41.290Z,53.10
2019-03-11T02:23:08.912Z,53.10
2019-03-11T02:25:36.478Z,52.80
2019-03-11T02:28:03.977Z,52.30
2019-03-11T02:30:31.652Z,52.20
2019-03-11T02:32:59.142Z,51.70
2019-03-11T02:35:28.337Z,51.90
2019-03-11T02:37:56.631Z,51.70
2019-03-11T02:40:24.269Z,51.40
2019-03-11T02:42:52.039Z,50.80
2019-03-11T02:45:19.717Z,51.00
2019-03-11T02:47:47.267Z,50.30
2019-03-11T02:50:14.989Z,49.90
2019-03-11T02:52:42.703Z,49.90
2019-03-11T02:55:10.281Z,49.90
2019-03-11T02:57:37.940Z,50.30
2019-03-11T03:00:08.486Z,50.00
2019-03-11T03:02:59.567Z,49.90
2019-03-11T03:05:30.494Z,50.30
2019-03-11T03:07:58.227Z,50.30
2019-03-11T03:10:25.831Z,50.80
2019-03-11T03:12:53.410Z,50.80
2019-03-11T03:15:21.076Z,51.00
2019-03-11T03:17:48.713Z,51.10
2019-03-11T03:20:16.290Z,51.30
2019-03-11T03:22:44.980Z,51.40
2019-03-11T03:25:12.572Z,51.10
2019-03-11T03:27:40.184Z,51.40
2019-03-11T03:30:11.309Z,51.40
2019-03-11T03:32:39.002Z,51.60
2019-03-11T03:35:06.475Z,51.60
2019-03-11T03:37:34.149Z,50.80
2019-03-11T03:40:01.848Z,50.70
2019-03-11T03:42:29.596Z,50.50
2019-03-11T03:45:19.771Z,50.70
2019-03-11T03:47:47.299Z,50.50
2019-03-11T03:50:14.805Z,51.10
2019-03-11T03:52:42.286Z,53.50
2019-03-11T03:55:09.871Z,54.90
2019-03-11T03:57:37.387Z,58.70
2019-03-11T04:00:05.293Z,63.70
2019-03-11T04:02:33.244Z,65.30
2019-03-11T04:05:00.937Z,65.90
2019-03-11T04:07:28.437Z,66.80
2019-03-11T04:09:55.971Z,68.10
2019-03-11T04:12:23.578Z,69.20
2019-03-11T04:14:51.375Z,69.80
2019-03-11T04:17:19.054Z,70.20
2019-03-11T04:19:46.630Z,71.10
2019-03-11T04:22:14.273Z,71.50
2019-03-11T04:24:42.025Z,72.20
2019-03-11T04:27:09.484Z,73.00
2019-03-11T04:29:37.066Z,73.20
2019-03-11T04:32:04.800Z,73.00
2019-03-11T04:34:32.305Z,73.30
2019-03-11T04:37:00.968Z,73.50
2019-03-11T04:39:28.579Z,73.30
2019-03-11T04:41:56.083Z,73.70
2019-03-11T04:44:23.622Z,73.50
2019-03-11T04:46:51.201Z,73.00
2019-03-11T04:49:19.005Z,72.40
2019-03-11T04:51:46.481Z,71.50
2019-03-11T04:54:14.006Z,70.40
2019-03-11T04:56:41.554Z,70.00
2019-03-11T04:59:10.767Z,69.60
2019-03-11T05:01:38.315Z,69.40
2019-03-11T05:04:05.872Z,69.10
2019-03-11T05:06:33.468Z,69.20
2019-03-11T05:09:01.254Z,68.90
2019-03-11T05:11:30.645Z,69.10
2019-03-11T05:13:58.246Z,69.10
2019-03-11T05:16:25.839Z,69.10
2019-03-11T05:18:53.540Z,69.80
2019-03-11T05:21:21.062Z,70.40
2019-03-11T05:23:48.671Z,70.70
2019-03-11T05:26:16.229Z,71.10
2019-03-11T05:28:43.871Z,71.50
2019-03-11T05:31:11.493Z,71.10
2019-03-11T05:33:39.022Z,71.50
2019-03-11T05:36:06.506Z,71.80
2019-03-11T05:38:34.407Z,72.00
2019-03-11T05:41:02.045Z,72.20
2019-03-11T05:43:29.587Z,72.60
2019-03-11T05:45:57.053Z,72.80
2019-03-11T05:48:24.677Z,72.80
2019-03-11T05:50:52.268Z,72.80
2019-03-11T05:53:19.856Z,72.60
2019-03-11T05:55:47.548Z,72.00
2019-03-11T05:58:15.186Z,71.50
2019-03-11T06:00:42.767Z,70.90
2019-03-11T06:03:10.989Z,69.80
2019-03-11T06:05:38.510Z,69.10
2019-03-11T06:08:06.112Z,67.20
2019-03-11T06:10:33.578Z,67.00
2019-03-11T06:13:01.147Z,63.70
2019-03-11T06:15:28.770Z,63.30
2019-03-11T06:17:56.334Z,61.80
2019-03-11T06:20:43.406Z,62.20
2019-03-11T06:23:11.555Z,61.60
2019-03-11T06:25:41.690Z,61.40
2019-03-11T06:28:10.418Z,61.60
2019-03-11T06:30:37.977Z,61.60
2019-03-11T06:33:05.684Z,62.50
2019-03-11T06:35:33.420Z,62.90
2019-03-11T06:38:01.080Z,63.70
2019-03-11T06:40:28.626Z,64.60
2019-03-11T06:42:56.057Z,65.10
2019-03-11T06:45:23.629Z,66.30
2019-03-11T06:47:51.179Z,67.20
2019-03-11T06:50:19.345Z,67.40
2019-03-11T06:52:47.082Z,68.10
2019-03-11T06:55:14.807Z,68.50
2019-03-11T06:57:42.717Z,68.30
2019-03-11T07:00:12.039Z,68.30
2019-03-11T07:02:40.000Z,67.90
2019-03-11T07:05:18.877Z,67.70
2019-03-11T07:07:37.026Z,72.00
2019-03-11T07:10:05.442Z,74.50
2019-03-11T07:12:33.082Z,77.60
2019-03-11T07:15:00.569Z,80.60
2019-03-11T07:17:28.222Z,84.10
2019-03-11T07:19:55.799Z,86.20
2019-03-11T07:22:23.829Z,89.20
2019-03-11T07:24:51.303Z,90.60
2019-03-11T07:27:18.777Z,91.20
2019-03-11T07:29:46.385Z,92.00
2019-03-11T07:32:13.935Z,92.70
2019-03-11T07:34:41.513Z,93.50
2019-03-11T07:37:10.374Z,93.90
2019-03-11T07:39:37.947Z,94.60
2019-03-11T07:42:05.856Z,94.90
2019-03-11T07:44:33.413Z,96.10
2019-03-11T07:47:01.113Z,96.40
2019-03-11T07:49:28.756Z,96.80
2019-03-11T07:51:56.403Z,96.70
2019-03-11T07:54:24.003Z,97.00
2019-03-11T07:56:51.499Z,97.20
2019-03-11T07:59:19.004Z,96.90
2019-03-11T08:01:46.547Z,97.00
2019-03-11T08:04:14.042Z,96.20
2019-03-11T08:06:41.743Z,96.10
2019-03-11T08:09:09.287Z,95.80
2019-03-11T08:11:37.282Z,95.40
2019-03-11T08:14:04.884Z,95.60
2019-03-11T08:16:33.491Z,95.40
2019-03-11T08:19:01.096Z,94.90
2019-03-11T08:21:28.594Z,94.40
2019-03-11T08:23:56.240Z,93.70
2019-03-11T08:26:23.702Z,93.40
2019-03-11T08:28:51.241Z,93.00
2019-03-11T08:31:18.870Z,92.90
2019-03-11T08:33:47.892Z,93.20
2019-03-11T08:36:15.957Z,93.20
2019-03-11T08:38:43.550Z,92.40
2019-03-11T08:41:11.102Z,89.90
2019-03-11T08:43:38.784Z,87.10
2019-03-11T08:46:06.648Z,85.10
2019-03-11T08:48:34.441Z,75.40
2019-03-11T08:51:02.000Z,67.20
2019-03-11T08:53:29.542Z,66.30
2019-03-11T08:55:57.189Z,70.00
2019-03-11T08:58:24.719Z,73.90
2019-03-11T09:00:52.326Z,78.40
2019-03-11T09:03:19.847Z,80.60
2019-03-11T09:05:47.413Z,79.30
2019-03-11T09:08:14.998Z,78.40
2019-03-11T09:10:43.990Z,77.60
2019-03-11T09:13:11.549Z,79.50
2019-03-11T09:15:39.176Z,78.90
2019-03-11T09:18:06.885Z,81.00
2019-03-11T09:20:34.395Z,80.80
2019-03-11T09:23:01.845Z,81.50
2019-03-11T09:25:29.342Z,82.80
2019-03-11T09:27:58.153Z,83.60
2019-03-11T09:30:25.736Z,83.00
2019-03-11T09:33:17.644Z,82.10
2019-03-11T09:35:48.355Z,79.30
2019-03-11T09:38:15.828Z,71.50
2019-03-11T09:40:43.405Z,67.40
2019-03-11T09:43:10.979Z,66.40
2019-03-11T09:45:38.675Z,63.50
2019-03-11T09:48:06.197Z,62.50
2019-03-11T09:50:33.749Z,66.80
2019-03-11T09:53:01.337Z,64.80
2019-03-11T09:55:29.024Z,59.50
2019-03-11T09:57:56.543Z,58.00
2019-03-11T10:00:25.147Z,55.50
2019-03-11T10:02:53.555Z,56.30
2019-03-11T10:05:21.366Z,57.50
2019-03-11T10:07:49.367Z,56.60
2019-03-11T10:10:17.019Z,53.20
2019-03-11T10:12:45.619Z,55.80
2019-03-11T10:15:15.190Z,53.40
2019-03-11T10:17:42.714Z,54.00
2019-03-11T10:20:10.774Z,54.00
2019-03-11T10:22:39.501Z,52.60
2019-03-11T10:25:07.208Z,51.70
2019-03-11T10:27:34.834Z,51.90
2019-03-11T10:30:03.176Z,50.70
2019-03-11T10:32:32.407Z,50.70
2019-03-11T10:35:00.165Z,48.20
2019-03-11T10:37:27.655Z,47.50
2019-03-11T10:39:55.196Z,47.50
2019-03-11T10:42:24.429Z,47.30
2019-03-11T10:44:52.074Z,47.90
2019-03-11T10:47:19.750Z,45.00
2019-03-11T10:49:48.194Z,49.70
2019-03-11T10:52:15.971Z,50.30
2019-03-11T10:54:44.571Z,50.30
2019-03-11T10:57:12.280Z,49.40
2019-03-11T10:59:39.957Z,50.50
2019-03-11T11:02:07.445Z,49.70
2019-03-11T11:04:35.003Z,50.50
2019-03-11T11:07:02.699Z,52.20
2019-03-11T11:09:30.642Z,53.50
2019-03-11T11:11:58.283Z,55.40
2019-03-11T11:14:25.980Z,56.30
2019-03-11T11:16:53.736Z,54.00
2019-03-11T11:19:21.350Z,54.00
2019-03-11T11:21:48.943Z,49.10
2019-03-11T11:24:16.537Z,44.90
2019-03-11T11:26:44.166Z,45.30
2019-03-11T11:29:11.813Z,49.60
2019-03-11T11:31:39.494Z,47.80
2019-03-11T11:34:07.001Z,44.70
2019-03-11T11:36:34.574Z,42.70
2019-03-11T11:39:02.280Z,43.20
2019-03-11T11:41:31.806Z,45.60
2019-03-11T11:43:59.298Z,47.60
2019-03-11T11:46:26.857Z,48.40
2019-03-11T11:48:54.332Z,48.80
2019-03-11T11:51:21.837Z,46.70
2019-03-11T11:53:49.362Z,42.60
2019-03-11T11:56:16.983Z,45.20
2019-03-11T11:58:44.613Z,44.40
2019-03-11T12:01:12.240Z,43.30
2019-03-11T12:03:39.749Z,40.90
2019-03-11T12:06:07.566Z,40.30
2019-03-11T12:08:35.155Z,41.40
2019-03-11T12:11:03.002Z,42.10
2019-03-11T12:13:30.665Z,40.90
2019-03-11T12:15:58.221Z,42.10
2019-03-11T12:18:25.883Z,45.80
2019-03-11T12:20:53.558Z,46.50
2019-03-11T12:23:21.156Z,48.70
2019-03-11T12:25:48.839Z,46.70
2019-03-11T12:28:17.581Z,47.90
2019-03-11T12:30:45.110Z,49.30
2019-03-11T12:33:12.696Z,50.00
2019-03-11T12:35:40.233Z,48.70
2019-03-11T12:38:07.875Z,49.40
2019-03-11T12:40:35.567Z,49.40
2019-03-11T12:43:03.085Z,46.80
2019-03-11T12:45:30.782Z,46.10
2019-03-11T12:47:58.608Z,41.80
2019-03-11T12:50:26.340Z,39.80
2019-03-11T12:52:54.105Z,33.70
2019-03-11T12:55:21.994Z,33.00
2019-03-11T12:57:49.751Z,33.40
2019-03-11T13:00:17.924Z,29.60
2019-03-11T13:02:45.612Z,31.90
2019-03-11T13:05:13.476Z,31.90
2019-03-11T13:07:41.250Z,30.20
2019-03-11T13:10:10.800Z,30.90
2019-03-11T13:12:38.414Z,35.00
2019-03-11T13:15:06.954Z,36.80
2019-03-11T13:17:34.543Z,41.50
2019-03-11T13:20:02.050Z,40.90
2019-03-11T13:22:29.929Z,40.80
2019-03-11T13:24:58.553Z,44.00
2019-03-11T13:27:26.471Z,46.70
2019-03-11T13:29:54.146Z,44.40
2019-03-11T13:32:21.686Z,44.10
2019-03-11T13:34:49.203Z,44.90
2019-03-11T13:37:17.085Z,46.10
2019-03-11T13:39:44.878Z,45.50
2019-03-11T13:42:12.438Z,45.60
2019-03-11T13:44:40.070Z,37.30
2019-03-11T13:47:07.702Z,33.40
2019-03-11T13:49:35.466Z,28.70
2019-03-11T13:52:03.111Z,26.70
2019-03-11T13:54:30.925Z,24.30
2019-03-11T13:56:58.439Z,24.40
2019-03-11T13:59:26.056Z,21.70
2019-03-11T14:01:53.750Z,20.40
2019-03-11T14:04:21.759Z,20.80
2019-03-11T14:06:49.334Z,21.30
2019-03-11T14:09:16.887Z,22.80
2019-03-11T14:11:44.750Z,24.20
2019-03-11T14:14:12.277Z,27.30
2019-03-11T14:16:39.844Z,27.70
2019-03-11T14:19:07.542Z,26.40
2019-03-11T14:21:35.392Z,27.50
2019-03-11T14:24:02.928Z,29.50
2019-03-11T14:26:30.582Z,28.00
2019-03-11T14:28:58.297Z,26.70
2019-03-11T14:31:26.019Z,28.00
2019-03-11T14:33:53.535Z,29.60
2019-03-11T14:36:21.174Z,33.10
2019-03-11T14:38:49.113Z,34.20
2019-03-11T14:41:16.731Z,33.60
2019-03-11T14:43:44.265Z,36.60
2019-03-11T14:46:12.070Z,39.10
2019-03-11T14:48:39.842Z,43.60
2019-03-11T14:51:07.615Z,46.10
2019-03-11T14:53:35.231Z,46.20
2019-03-11T14:56:03.034Z,45.80
2019-03-11T14:58:30.619Z,42.60
2019-03-11T15:00:58.165Z,42.70
2019-03-11T15:03:26.830Z,39.10
2019-03-11T15:05:54.676Z,33.70
2019-03-11T15:08:22.453Z,30.70
2019-03-11T15:10:50.008Z,27.50
2019-03-11T15:13:17.858Z,26.80
2019-03-11T15:15:45.383Z,28.80
2019-03-11T15:18:13.019Z,30.70
2019-03-11T15:20:40.564Z,34.80
2019-03-11T15:23:19.980Z,35.60
2019-03-11T15:25:38.460Z,37.10
2019-03-11T15:28:06.210Z,36.60
2019-03-11T15:30:33.748Z,35.60
2019-03-11T15:33:01.388Z,35.70
2019-03-11T15:35:29.213Z,37.60
2019-03-11T15:37:56.844Z,37.90
2019-03-11T15:40:27.151Z,36.30
2019-03-11T15:42:54.860Z,37.10
2019-03-11T15:45:22.414Z,37.60
2019-03-11T15:47:50.068Z,37.70
2019-03-11T15:50:20.401Z,38.60
2019-03-11T15:52:48.068Z,42.30
2019-03-11T15:55:16.148Z,45.50
2019-03-11T15:57:43.678Z,50.30
2019-03-11T16:00:14.008Z,53.40
2019-03-11T16:02:41.586Z,54.30
2019-03-11T16:05:09.310Z,52.20
2019-03-11T16:07:37.114Z,49.40
2019-03-11T16:10:16.022Z,48.10
2019-03-11T16:12:34.769Z,48.70
2019-03-11T16:15:02.433Z,49.10
2019-03-11T16:17:30.607Z,47.00
2019-03-11T16:19:58.141Z,45.20
2019-03-11T16:22:26.451Z,44.90
2019-03-11T16:24:54.233Z,44.60
2019-03-11T16:27:21.887Z,44.40
2019-03-11T16:29:49.659Z,45.90
2019-03-11T16:32:17.177Z,46.80
2019-03-11T16:34:44.700Z,47.50
2019-03-11T16:37:12.298Z,48.80
2019-03-11T16:39:39.955Z,48.70
2019-03-11T16:42:07.616Z,51.30
2019-03-11T16:44:35.402Z,52.80
2019-03-11T16:47:02.959Z,54.80
2019-03-11T16:49:30.430Z,55.50
2019-03-11T16:51:58.184Z,56.10
2019-03-11T16:54:26.005Z,56.60
2019-03-11T16:56:53.797Z,58.30
2019-03-11T17:02:00.154Z,60.10
2019-03-11T17:04:27.722Z,61.00
2019-03-11T17:06:55.241Z,61.40
2019-03-11T17:09:22.785Z,63.10
2019-03-11T17:11:50.430Z,65.90
2019-03-11T17:14:17.994Z,67.20
2019-03-11T17:16:45.523Z,68.10
2019-03-11T17:19:13.372Z,69.40
2019-03-11T17:21:41.051Z,70.00
2019-03-11T17:24:08.874Z,70.40
2019-03-11T17:26:36.508Z,70.40
2019-03-11T17:29:04.265Z,70.40
2019-03-11T17:31:31.880Z,70.40
2019-03-11T17:33:59.362Z,71.10
2019-03-11T17:36:27.957Z,71.30
2019-03-11T17:38:55.633Z,72.00
2019-03-11T17:41:23.414Z,72.20
2019-03-11T17:43:52.204Z,72.00
2019-03-11T17:46:19.754Z,71.70
2019-03-11T17:48:47.481Z,71.80
2019-03-11T17:51:15.224Z,71.70
2019-03-11T17:53:43.184Z,72.00
2019-03-11T17:56:10.774Z,71.70
2019-03-11T17:58:38.601Z,71.80
2019-03-11T18:01:06.174Z,71.30
2019-03-11T18:03:33.744Z,70.70
2019-03-11T18:06:11.149Z,69.80
2019-03-11T18:08:31.685Z,69.60
2019-03-11T18:10:59.238Z,69.60
2019-03-11T18:13:26.778Z,69.40
2019-03-11T18:15:54.349Z,68.50
2019-03-11T18:18:32.461Z,68.10
2019-03-11T18:20:51.350Z,68.10
2019-03-11T18:23:18.925Z,66.60
2019-03-11T18:25:46.542Z,65.50
2019-03-11T18:28:14.109Z,65.10
2019-03-11T18:30:41.662Z,63.30
2019-03-11T18:33:09.260Z,62.00
2019-03-11T18:35:36.854Z,60.90
2019-03-11T18:38:05.051Z,60.50
2019-03-11T18:40:32.884Z,58.70
2019-03-11T18:43:00.336Z,58.10
2019-03-11T18:45:28.009Z,58.10
2019-03-11T18:47:55.663Z,58.00
2019-03-11T18:50:23.462Z,58.30
2019-03-11T18:52:50.873Z,58.90
2019-03-11T18:55:19.141Z,59.50
2019-03-11T18:57:46.736Z,59.90
2019-03-11T19:00:16.275Z,60.30
2019-03-11T19:02:44.056Z,59.80
2019-03-11T19:05:12.373Z,60.30
2019-03-11T19:07:40.063Z,58.30
2019-03-11T19:10:08.741Z,57.80
2019-03-11T19:12:36.849Z,57.00
2019-03-11T19:15:05.296Z,57.00
2019-03-11T19:17:33.030Z,56.40
2019-03-11T19:20:00.803Z,56.10
2019-03-11T19:22:28.704Z,55.80
2019-03-11T19:24:56.300Z,55.20
2019-03-11T19:27:23.915Z,54.90
2019-03-11T19:29:51.526Z,54.60
2019-03-11T19:32:19.131Z,54.00
2019-03-11T19:34:46.694Z,53.90
2019-03-11T19:37:14.234Z,54.60
2019-03-11T19:39:41.864Z,55.10
2019-03-11T19:42:09.473Z,54.00
2019-03-11T19:44:37.058Z,54.80
2019-03-11T19:47:04.756Z,54.80
2019-03-11T19:49:35.067Z,54.80
2019-03-11T19:52:02.645Z,55.10
2019-03-11T19:54:30.154Z,55.20
2019-03-11T19:56:57.642Z,54.30
2019-03-11T19:59:25.099Z,54.50
2019-03-11T20:01:52.773Z,53.90
2019-03-11T20:04:20.402Z,54.50
2019-03-11T20:06:48.158Z,54.60
2019-03-11T20:09:15.807Z,54.80
2019-03-11T20:11:43.462Z,54.90
2019-03-11T20:14:11.124Z,55.40
2019-03-11T20:16:38.926Z,55.50
2019-03-11T20:19:06.546Z,55.40
2019-03-11T20:21:34.020Z,55.80
2019-03-11T20:24:01.697Z,56.00
2019-03-11T20:26:29.648Z,56.40
2019-03-11T20:28:57.258Z,56.30
2019-03-11T20:31:24.900Z,55.70
2019-03-11T20:33:52.574Z,56.10
2019-03-11T20:36:21.425Z,56.30
2019-03-11T20:38:49.162Z,56.40
2019-03-11T20:41:16.660Z,56.90
2019-03-11T20:43:44.277Z,56.30
2019-03-11T20:46:11.880Z,56.60
2019-03-11T20:48:39.486Z,56.40
2019-03-11T20:51:07.053Z,55.80
2019-03-11T20:53:34.647Z,55.70
2019-03-11T20:56:02.202Z,56.00
2019-03-11T20:58:30.942Z,56.40
2019-03-11T21:00:58.506Z,56.30
2019-03-11T21:03:26.040Z,56.10
2019-03-11T21:05:53.791Z,55.70
2019-03-11T21:08:21.488Z,54.90
2019-03-11T21:10:49.134Z,54.50
2019-03-11T21:13:16.898Z,54.50
2019-03-11T21:15:45.503Z,54.80
2019-03-11T21:18:13.162Z,55.10
2019-03-11T21:20:40.935Z,54.80
2019-03-11T21:23:08.470Z,54.60
2019-03-11T21:25:36.157Z,55.20
2019-03-11T21:28:03.714Z,54.50
2019-03-11T21:30:31.311Z,54.60
2019-03-11T21:32:59.080Z,54.90
2019-03-11T21:35:26.787Z,55.10
2019-03-11T21:37:54.500Z,54.80
2019-03-11T21:40:22.361Z,54.80
2019-03-11T21:42:50.147Z,55.40
2019-03-11T21:45:17.766Z,55.20
2019-03-11T21:47:50.790Z,55.40
2019-03-11T21:50:18.754Z,55.80
2019-03-11T21:52:46.356Z,55.10
2019-03-11T21:55:13.994Z,55.50
2019-03-11T21:57:41.712Z,56.00
2019-03-11T22:00:12.016Z,56.10
2019-03-11T22:02:39.965Z,55.40
2019-03-11T22:05:07.518Z,55.70
2019-03-11T22:07:35.018Z,56.10
2019-03-11T22:10:02.500Z,55.70
2019-03-11T22:12:30.381Z,56.40
2019-03-11T22:14:58.009Z,56.30
2019-03-11T22:17:25.495Z,56.30
2019-03-11T22:19:52.957Z,56.60
2019-03-11T22:22:20.402Z,56.40
2019-03-11T22:24:47.938Z,56.60
2019-03-11T22:27:15.359Z,56.30
2019-03-11T22:29:42.825Z,55.80
2019-03-11T22:32:11.471Z,56.00
2019-03-11T22:34:38.946Z,56.60
2019-03-11T22:37:06.565Z,56.60
2019-03-11T22:39:34.117Z,56.90
2019-03-11T22:42:01.673Z,57.00
2019-03-11T22:44:29.369Z,57.20
2019-03-11T22:46:56.849Z,57.50
2019-03-11T22:49:24.372Z,57.50
2019-03-11T22:51:52.039Z,57.80
2019-03-11T22:54:20.587Z,58.30
2019-03-11T22:56:48.353Z,57.80
2019-03-11T22:59:25.729Z,58.70
2019-03-11T23:01:54.678Z,59.20
2019-03-11T23:04:27.439Z,58.90
2019-03-11T23:06:55.757Z,58.40
2019-03-11T23:09:24.698Z,59.20
2019-03-11T23:11:53.059Z,59.50
2019-03-11T23:14:21.157Z,59.50
2019-03-11T23:16:49.445Z,58.70
2019-03-11T23:19:18.704Z,59.20
2019-03-11T23:21:46.526Z,59.30
2019-03-11T23:24:14.180Z,59.50
2019-03-11T23:26:41.838Z,59.80
2019-03-11T23:29:09.458Z,59.90
2019-03-11T23:31:37.086Z,60.10
2019-03-11T23:34:05.162Z,60.90
2019-03-11T23:36:32.674Z,61.40
2019-03-11T23:39:00.198Z,61.80
2019-03-11T23:41:29.008Z,61.80
2019-03-11T23:43:56.841Z,61.20
2019-03-11T23:46:24.346Z,61.60
2019-03-11T23:48:51.873Z,62.20
2019-03-11T23:51:19.499Z,62.30
2019-03-11T23:53:47.057Z,62.50
2019-03-11T23:56:14.652Z,62.90
2019-03-11T23:58:42.172Z,62.70
